Time;durP1;ratioP1;P1;durP2;ratioP2;P2;SDS_P1;SDS_P2;PMS_P1;PMS_P2;Temp;Humidity;BMP_temperature;BMP_pressure;BME280_temperature;BME280_humidity;BME280_pressure;Samples;Min_cycle;Max_cycle;Signal;HPM_P1;HPM_P2
2023/09/04 00:01:40;;;;;;;;;;;;;;;19.86;100.00;98990.91;5046078;28;19921;-78
2023/09/04 00:04:07;;;;;;;;;;;;;;;19.69;100.00;98986.03;5063974;28;19971;-78
2023/09/04 00:06:44;;;;;;;;;;;;;;;19.57;100.00;98987.56;5060488;28;20655;-78
2023/09/04 00:09:30;;;;;;;;;;;;;;;19.39;100.00;98984.59;5045355;28;19960;-78
2023/09/04 00:11:56;;;;;;;;;;;;;;;19.41;100.00;98981.59;5063777;28;19925;-78
2023/09/04 00:14:23;;;;;;;;;;;;;;;19.55;100.00;98981.66;5061742;28;19924;-78
2023/09/04 00:16:49;;;;;;;;;;;;;;;19.69;100.00;98982.50;5051870;28;19951;-78
2023/09/04 00:19:17;;;;;;;;;;;;;;;20.32;100.00;98993.63;5060879;28;19932;-78
2023/09/04 00:21:43;;;;;;;;;;;;;;;20.77;100.00;98995.44;5045636;28;19964;-78
2023/09/04 00:24:09;;;;;;;;;;;;;;;21.09;100.00;98997.25;5063281;28;19931;-78
2023/09/04 00:26:37;;;;;;;;;;;;;;;21.27;100.00;98992.75;5060179;28;19925;-78
2023/09/04 00:29:04;;;;;;;;;;;;;;;21.43;100.00;98992.13;5060176;28;20512;-78
2023/09/04 00:31:30;;;;;;;;;;;;;;;21.49;100.00;98996.31;5063018;28;19925;-78
2023/09/04 00:33:57;;;;;;;;;;;;;;;21.56;100.00;98990.47;5063427;28;19925;-78
2023/09/04 00:36:23;;;;;;;;;;;;;;;21.59;100.00;98991.75;5061442;28;19932;-78
2023/09/04 00:38:50;;;;;;;;;;;;;;;21.61;100.00;98992.25;5042161;28;19925;-78
2023/09/04 00:41:18;;;;;;;;;;;;;;;21.63;100.00;98992.75;5060750;28;19936;-78
2023/09/04 00:43:46;;;;;;;;;;;;;;;21.65;100.00;98993.25;5045499;28;19985;-78
2023/09/04 00:46:13;;;;;;;;;;;;;;;21.65;100.00;98988.63;5036861;28;19985;-79
2023/09/04 00:48:39;;;;;;;;;;;;;;;21.66;100.00;98987.50;5038344;28;19925;-78
2023/09/04 00:51:07;;;;;;;;;;;;;;;21.66;100.00;98989.41;5063668;28;19925;-78
2023/09/04 00:53:38;;;;;;;;;;;;;;;21.65;100.00;98982.38;5041885;28;19932;-78
2023/09/04 00:56:05;;;;;;;;;;;;;;;21.61;100.00;98986.81;5042877;28;19967;-78
2023/09/04 00:58:31;;;;;;;;;;;;;;;21.62;100.00;98983.00;5045827;28;19929;-78
2023/09/04 01:01:00;;;;;;;;;;;;;;;21.50;100.00;98975.38;5064042;28;19924;-78
2023/09/04 01:03:27;;;;;;;;;;;;;;;21.41;100.00;98977.25;5063112;28;19932;-78
2023/09/04 01:05:53;;;;;;;;;;;;;;;21.21;100.00;98981.22;5044964;28;19913;-78
2023/09/04 01:08:19;;;;;;;;;;;;;;;21.29;100.00;98985.13;5064931;28;19921;-78
2023/09/04 01:13:32;;;;;;;;;;;;;;;21.44;100.00;98976.63;5066188;28;19930;-77
2023/09/04 01:16:00;;;;;;;;;;;;;;;21.46;100.00;98985.25;5046285;28;19932;-77
2023/09/04 01:18:28;;;;;;;;;;;;;;;21.48;100.00;98989.28;5064112;28;19967;-77
2023/09/04 01:21:02;;;;;;;;;;;;;;;21.50;100.00;98988.97;5062176;28;19945;-77
2023/09/04 01:23:28;;;;;;;;;;;;;;;21.49;100.00;98985.44;5045488;28;19921;-77
2023/09/04 01:25:56;;;;;;;;;;;;;;;21.49;100.00;98984.66;5063673;28;20387;-78
2023/09/04 01:28:25;;;;;;;;;;;;;;;21.49;100.00;98984.66;5044212;28;19963;-77
2023/09/04 01:30:56;;;;;;;;;;;;;;;21.32;100.00;98990.72;5060840;28;20008;-77
2023/09/04 01:33:27;;;;;;;;;;;;;;;21.17;100.00;98984.88;5045167;28;19921;-78
2023/09/04 01:35:55;;;;;;;;;;;;;;;20.61;100.00;98996.06;5065381;28;19920;-77
2023/09/04 01:38:23;;;;;;;;;;;;;;;20.15;100.00;98991.47;5062203;28;19925;-77
2023/09/04 01:40:50;;;;;;;;;;;;;;;19.43;100.00;98995.66;5058894;28;20458;-77
2023/09/04 01:43:17;;;;;;;;;;;;;;;18.97;100.00;98987.31;5060111;28;19983;-77
2023/09/04 01:45:59;;;;;;;;;;;;;;;18.80;100.00;98995.16;5037348;28;19948;-77
2023/09/04 01:48:26;;;;;;;;;;;;;;;18.71;100.00;98999.59;5034873;28;19948;-77
2023/09/04 01:50:53;;;;;;;;;;;;;;;18.57;100.00;98996.00;5044481;28;19925;-77
2023/09/04 01:53:20;;;;;;;;;;;;;;;18.81;100.00;98992.16;5060337;28;20060;-77
2023/09/04 01:55:48;;;;;;;;;;;;;;;19.09;100.00;98993.16;5040683;28;19925;-77
2023/09/04 01:58:14;;;;;;;;;;;;;;;19.04;100.00;98997.81;5059225;28;19936;-77
2023/09/04 02:00:40;;;;;;;;;;;;;;;19.22;100.00;98997.81;5061472;28;19960;-77
2023/09/04 02:03:07;;;;;;;;;;;;;;;19.69;100.00;99001.47;5061677;28;19924;-77
2023/09/04 02:05:37;;;;;;;;;;;;;;;20.13;100.00;98995.56;5058202;28;19947;-77
2023/09/04 02:08:07;;;;;;;;;;;;;;;20.42;100.00;99007.78;5058067;28;20248;-77
2023/09/04 02:10:34;;;;;;;;;;;;;;;20.63;100.00;99000.09;5061700;28;19935;-77
2023/09/04 02:13:01;;;;;;;;;;;;;;;20.48;100.00;98996.88;5062894;28;20281;-75
2023/09/04 02:15:28;;;;;;;;;;;;;;;20.04;100.00;98990.03;5043529;28;19932;-76
2023/09/04 02:17:54;;;;;;;;;;;;;;;19.91;100.00;98994.34;5060076;28;19955;-76
2023/09/04 02:20:21;;;;;;;;;;;;;;;20.21;100.00;98997.63;5063906;28;19970;-76
2023/09/04 02:22:47;;;;;;;;;;;;;;;20.52;100.00;98985.09;5062163;28;19953;-76
2023/09/04 02:25:13;;;;;;;;;;;;;;;20.63;100.00;98991.13;5044802;28;20017;-76
2023/09/04 02:27:40;;;;;;;;;;;;;;;20.73;100.00;98988.22;5065257;28;19955;-76
2023/09/04 02:30:08;;;;;;;;;;;;;;;20.84;100.00;98978.75;5065417;28;19984;-77
2023/09/04 02:32:35;;;;;;;;;;;;;;;20.89;100.00;98979.44;5036432;28;19935;-77
2023/09/04 02:35:01;;;;;;;;;;;;;;;20.95;100.00;98978.22;5051678;28;19924;-77
2023/09/04 02:37:42;;;;;;;;;;;;;;;20.97;100.00;98967.06;5063436;28;19964;-77
2023/09/04 02:40:09;;;;;;;;;;;;;;;20.93;100.00;98972.28;5062532;28;19925;-77
2023/09/04 02:42:36;;;;;;;;;;;;;;;20.92;100.00;98967.97;5070064;28;20091;-77
2023/09/04 02:45:05;;;;;;;;;;;;;;;20.70;100.00;98969.81;5044405;28;20374;-77
2023/09/04 02:47:34;;;;;;;;;;;;;;;20.54;100.00;98971.22;5056906;28;19928;-77
2023/09/04 02:50:00;;;;;;;;;;;;;;;20.59;100.00;98974.63;5065109;28;19925;-77
2023/09/04 02:52:29;;;;;;;;;;;;;;;20.43;100.00;98973.34;5062838;28;19924;-77
2023/09/04 02:57:36;;;;;;;;;;;;;;;20.10;100.00;98974.47;5043592;28;20410;-77
2023/09/04 03:00:05;;;;;;;;;;;;;;;20.00;100.00;98978.16;5061799;28;19997;-77
2023/09/04 03:02:32;;;;;;;;;;;;;;;19.81;100.00;98977.41;5047086;28;19929;-77
2023/09/04 03:04:59;;;;;;;;;;;;;;;19.67;100.00;98979.28;5080148;28;19956;-77
2023/09/04 03:07:26;;;;;;;;;;;;;;;19.48;100.00;98973.09;5077980;28;19951;-77
2023/09/04 03:09:55;;;;;;;;;;;;;;;19.87;100.00;98976.22;5062559;28;19925;-77
2023/09/04 03:12:21;;;;;;;;;;;;;;;20.14;100.00;98981.72;5065162;28;19927;-77
2023/09/04 03:14:52;;;;;;;;;;;;;;;20.38;100.00;98981.56;5048677;28;19952;-77
2023/09/04 03:17:18;;;;;;;;;;;;;;;20.60;100.00;98978.97;5056099;28;19967;-77
2023/09/04 03:19:45;;;;;;;;;;;;;;;20.63;100.00;98983.78;5046704;28;20013;-77
2023/09/04 03:22:12;;;;;;;;;;;;;;;20.67;100.00;98975.84;5046399;28;19968;-77
2023/09/04 03:24:39;;;;;;;;;;;;;;;20.66;100.00;98979.66;5041933;28;19932;-77
2023/09/04 03:27:05;;;;;;;;;;;;;;;20.68;100.00;98980.97;5043169;28;19958;-77
2023/09/04 03:29:32;;;;;;;;;;;;;;;20.71;100.00;98985.78;5063709;28;19988;-77
2023/09/04 03:31:58;;;;;;;;;;;;;;;20.70;100.00;98976.06;5046323;28;20015;-77
2023/09/04 03:34:26;;;;;;;;;;;;;;;20.70;100.00;98980.69;5061959;28;19925;-77
2023/09/04 03:36:52;;;;;;;;;;;;;;;20.69;100.00;98974.44;5060455;28;19936;-77
2023/09/04 03:39:20;;;;;;;;;;;;;;;20.68;100.00;98966.59;5061714;28;19925;-77
2023/09/04 03:44:29;;;;;;;;;;;;;;;20.70;100.00;98958.97;5061228;28;19936;-77
2023/09/04 03:46:57;;;;;;;;;;;;;;;20.67;100.00;98954.13;5034012;28;20099;-77
2023/09/04 03:49:23;;;;;;;;;;;;;;;20.66;100.00;98955.25;5062278;28;19956;-77
2023/09/04 03:51:49;;;;;;;;;;;;;;;20.62;100.00;98965.91;5045877;28;19925;-77
2023/09/04 03:54:16;;;;;;;;;;;;;;;20.51;100.00;98972.66;5062561;28;19925;-77
2023/09/04 03:56:43;;;;;;;;;;;;;;;20.55;100.00;98964.72;5042379;28;19967;-77
2023/09/04 03:59:10;;;;;;;;;;;;;;;20.32;100.00;98961.06;5060041;28;19932;-77
2023/09/04 04:01:36;;;;;;;;;;;;;;;20.11;100.00;98965.25;5063785;28;19984;-77
2023/09/04 04:04:02;;;;;;;;;;;;;;;20.27;100.00;98970.09;5061954;28;20382;-76
2023/09/04 04:06:29;;;;;;;;;;;;;;;20.25;100.00;98964.16;5060517;28;19931;-76
2023/09/04 04:08:55;;;;;;;;;;;;;;;20.29;100.00;98961.69;5059777;28;19921;-77
2023/09/04 04:11:21;;;;;;;;;;;;;;;20.28;100.00;98955.44;5043423;28;19925;-77
2023/09/04 04:13:49;;;;;;;;;;;;;;;20.38;100.00;98957.16;5045266;28;19929;-77
2023/09/04 04:16:16;;;;;;;;;;;;;;;20.41;100.00;98957.38;5053881;28;19925;-77
2023/09/04 04:18:42;;;;;;;;;;;;;;;20.45;100.00;98957.56;5059865;28;19948;-77
2023/09/04 04:21:09;;;;;;;;;;;;;;;20.43;100.00;98968.72;5041630;28;19921;-77
2023/09/04 04:23:35;;;;;;;;;;;;;;;20.45;100.00;98963.81;5063230;28;20357;-78
2023/09/04 04:26:03;;;;;;;;;;;;;;;20.48;100.00;98964.31;5062992;28;19947;-76
2023/09/04 04:28:29;;;;;;;;;;;;;;;20.44;100.00;98967.63;5060419;28;19925;-77
2023/09/04 04:30:57;;;;;;;;;;;;;;;20.44;100.00;98964.91;5059218;28;19922;-77
2023/09/04 04:33:23;;;;;;;;;;;;;;;20.44;100.00;98974.94;5061154;28;19929;-77
2023/09/04 04:35:52;;;;;;;;;;;;;;;20.42;100.00;98972.53;5045112;28;19925;-76
2023/09/04 04:38:18;;;;;;;;;;;;;;;20.44;100.00;98974.94;5044101;28;20000;-76
2023/09/04 04:40:44;;;;;;;;;;;;;;;20.33;100.00;98987.91;5041448;28;20019;-78
2023/09/04 04:43:11;;;;;;;;;;;;;;;20.37;100.00;98986.19;5059800;28;19958;-77
2023/09/04 04:45:37;;;;;;;;;;;;;;;20.29;100.00;98989.63;5059134;28;19931;-77
2023/09/04 04:48:06;;;;;;;;;;;;;;;20.29;100.00;98992.34;5058450;28;19921;-77
2023/09/04 04:50:32;;;;;;;;;;;;;;;20.32;100.00;98989.03;5059731;28;19929;-77
2023/09/04 04:52:58;;;;;;;;;;;;;;;20.36;100.00;98994.66;5041842;28;19929;-77
2023/09/04 04:55:25;;;;;;;;;;;;;;;20.32;100.00;98993.63;5043821;28;19960;-76
2023/09/04 04:57:53;;;;;;;;;;;;;;;20.34;100.00;99008.50;5044762;28;19964;-77
2023/09/04 05:00:19;;;;;;;;;;;;;;;20.34;100.00;98992.22;5061132;28;19978;-77
2023/09/04 05:02:45;;;;;;;;;;;;;;;20.35;100.00;98991.13;5059011;28;19925;-77
2023/09/04 05:05:13;;;;;;;;;;;;;;;20.33;100.00;98993.31;5059005;28;19932;-77
2023/09/04 05:07:41;;;;;;;;;;;;;;;20.34;100.00;98992.22;5077636;28;19979;-77
2023/09/04 05:10:08;;;;;;;;;;;;;;;20.29;100.00;98989.63;5044490;28;19988;-77
2023/09/04 05:12:34;;;;;;;;;;;;;;;20.12;100.00;99000.19;5040975;28;19971;-77
2023/09/04 05:15:01;;;;;;;;;;;;;;;20.10;100.00;98996.97;5057641;28;19996;-77
2023/09/04 05:17:27;;;;;;;;;;;;;;;20.07;100.00;98996.78;5052628;28;19963;-77
2023/09/04 05:19:53;;;;;;;;;;;;;;;20.00;100.00;98990.94;5061640;28;19943;-77
2023/09/04 05:22:21;;;;;;;;;;;;;;;19.88;100.00;99002.25;5060594;28;19948;-77
2023/09/04 05:24:47;;;;;;;;;;;;;;;19.34;100.00;99005.53;5058558;28;19925;-78
2023/09/04 05:27:14;;;;;;;;;;;;;;;18.99;100.00;99004.09;5041178;28;19960;-77
2023/09/04 05:29:40;;;;;;;;;;;;;;;19.08;100.00;98999.66;5061902;28;19925;-77
2023/09/04 05:32:08;;;;;;;;;;;;;;;19.19;100.00;99001.09;5044179;28;19924;-77
2023/09/04 05:34:39;;;;;;;;;;;;;;;18.75;100.00;98998.72;5040560;28;19949;-77
2023/09/04 05:37:05;;;;;;;;;;;;;;;18.69;100.00;99001.78;5040355;28;19948;-77
2023/09/04 05:39:33;;;;;;;;;;;;;;;19.03;100.00;98993.50;5061062;28;19929;-77
2023/09/04 05:41:59;;;;;;;;;;;;;;;19.36;100.00;98987.88;5044057;28;19929;-77
2023/09/04 05:44:26;;;;;;;;;;;;;;;19.34;100.00;99000.09;5059110;28;19924;-77
2023/09/04 05:46:52;;;;;;;;;;;;;;;19.04;100.00;98995.91;5049201;28;19925;-77
2023/09/04 05:49:18;;;;;;;;;;;;;;;19.24;100.00;98998.34;5039930;28;19929;-77
2023/09/04 05:51:45;;;;;;;;;;;;;;;19.00;100.00;98988.69;5057923;28;19921;-77
2023/09/04 05:54:11;;;;;;;;;;;;;;;19.62;100.00;98988.28;5040325;28;19932;-77
2023/09/04 05:56:39;;;;;;;;;;;;;;;19.39;100.00;98987.31;5061362;28;20430;-77
2023/09/04 05:59:05;;;;;;;;;;;;;;;19.90;100.00;98994.63;5043626;28;19948;-77
2023/09/04 06:01:32;;;;;;;;;;;;;;;20.10;100.00;98996.19;5057994;28;19925;-77
2023/09/04 06:03:58;;;;;;;;;;;;;;;20.45;100.00;99007.22;5040115;28;19948;-77
2023/09/04 06:06:25;;;;;;;;;;;;;;;21.00;100.00;98999.03;5059905;28;19936;-77
2023/09/04 06:08:51;;;;;;;;;;;;;;;21.37;100.00;98985.19;5043431;28;19925;-77
2023/09/04 06:11:18;;;;;;;;;;;;;;;21.64;100.00;98986.19;5060441;28;19924;-77
2023/09/04 06:13:46;;;;;;;;;;;;;;;21.25;100.00;98992.28;5040131;28;19960;-77
2023/09/04 06:16:13;;;;;;;;;;;;;;;21.30;100.00;99003.81;5038323;28;19931;-77
2023/09/04 06:18:40;;;;;;;;;;;;;;;21.81;100.00;99006.16;5040011;28;19940;-77
2023/09/04 06:21:06;;;;;;;;;;;;;;;21.90;100.00;99008.97;5057784;28;19959;-77
2023/09/04 06:23:33;;;;;;;;;;;;;;;22.20;98.71;99010.91;5043086;28;19925;-77
2023/09/04 06:26:01;;;;;;;;;;;;;;;22.54;97.17;99000.19;5061306;28;19929;-77
2023/09/04 06:28:28;;;;;;;;;;;;;;;22.75;94.30;98997.72;5058900;28;20480;-78
2023/09/04 06:30:55;;;;;;;;;;;;;;;23.11;92.12;99005.66;5057899;28;19944;-78
2023/09/04 06:33:22;;;;;;;;;;;;;;;23.28;89.53;99007.59;5041960;28;19926;-77
2023/09/04 06:35:48;;;;;;;;;;;;;;;23.27;90.34;99011.44;5061444;28;19925;-77
2023/09/04 06:38:14;;;;;;;;;;;;;;;23.25;89.66;99014.47;5060697;28;19947;-77
2023/09/04 06:40:42;;;;;;;;;;;;;;;23.26;90.26;99023.47;5039921;28;19925;-77
2023/09/04 06:43:09;;;;;;;;;;;;;;;23.00;89.55;99028.84;5039807;28;20421;-77
2023/09/04 06:45:37;;;;;;;;;;;;;;;23.44;89.06;99039.56;5056122;28;19921;-77
2023/09/04 06:48:05;;;;;;;;;;;;;;;23.22;87.54;99042.38;5056815;28;19959;-77
2023/09/04 06:50:31;;;;;;;;;;;;;;;23.52;88.60;99037.97;5057792;28;19938;-77
2023/09/04 06:52:58;;;;;;;;;;;;;;;23.76;86.11;99045.66;5057063;28;19936;-77
2023/09/04 06:55:24;;;;;;;;;;;;;;;23.94;84.00;99044.53;5041224;28;19964;-77
2023/09/04 06:57:51;;;;;;;;;;;;;;;24.26;81.35;99048.69;5060621;28;19971;-77
2023/09/04 07:00:18;;;;;;;;;;;;;;;24.28;81.68;99047.22;5062770;28;20008;-77
2023/09/04 07:02:44;;;;;;;;;;;;;;;24.45;80.48;99044.44;5042860;28;19926;-77
2023/09/04 07:05:12;;;;;;;;;;;;;;;24.40;79.11;99043.81;5060915;28;19936;-77
2023/09/04 07:07:38;;;;;;;;;;;;;;;24.48;79.28;99046.50;5064379;28;19993;-77
2023/09/04 07:10:04;;;;;;;;;;;;;;;24.45;79.35;99046.38;5064263;28;20027;-77
2023/09/04 07:12:31;;;;;;;;;;;;;;;24.69;78.54;99050.16;5043618;28;19948;-77
2023/09/04 07:14:58;;;;;;;;;;;;;;;24.50;78.25;99055.19;5060828;28;19949;-77
2023/09/04 07:17:24;;;;;;;;;;;;;;;24.01;80.75;99053.84;5050954;28;19925;-76
2023/09/04 07:19:51;;;;;;;;;;;;;;;24.02;83.90;99055.41;5043079;28;19929;-76
2023/09/04 07:22:18;;;;;;;;;;;;;;;24.06;82.93;99050.94;5062037;28;19956;-77
2023/09/04 07:24:45;;;;;;;;;;;;;;;23.97;83.73;99046.59;5079577;28;19920;-77
2023/09/04 07:27:11;;;;;;;;;;;;;;;23.94;84.01;99048.06;5063876;28;19925;-77
2023/09/04 07:29:37;;;;;;;;;;;;;;;24.03;82.77;99037.13;5042945;28;19967;-77
2023/09/04 07:32:05;;;;;;;;;;;;;;;23.90;83.78;99036.19;5061058;28;19932;-77
2023/09/04 07:34:32;;;;;;;;;;;;;;;23.29;85.25;99031.81;5045832;28;19928;-77
2023/09/04 07:36:58;;;;;;;;;;;;;;;22.77;91.50;99039.06;5064073;28;19967;-77
2023/09/04 07:39:26;;;;;;;;;;;;;;;22.73;92.99;99040.00;5044148;28;19924;-77
2023/09/04 07:41:52;;;;;;;;;;;;;;;22.52;94.29;99035.09;5060343;28;19925;-77
2023/09/04 07:44:19;;;;;;;;;;;;;;;22.41;95.55;99033.75;5043749;28;19955;-77
2023/09/04 07:46:45;;;;;;;;;;;;;;;22.45;95.11;99032.00;5057212;28;19960;-77
2023/09/04 07:49:12;;;;;;;;;;;;;;;22.28;95.88;99034.63;5060271;28;19925;-77
2023/09/04 07:51:39;;;;;;;;;;;;;;;22.34;96.88;99036.13;5063387;28;19925;-77
2023/09/04 07:54:05;;;;;;;;;;;;;;;22.01;97.78;99040.22;5045705;28;20000;-77
2023/09/04 07:56:33;;;;;;;;;;;;;;;21.89;100.00;99040.00;5042828;28;19929;-77
2023/09/04 07:58:59;;;;;;;;;;;;;;;22.03;100.00;99048.91;5059986;28;19948;-78
2023/09/04 08:01:30;;;;;;;;;;;;;;;22.14;99.65;99039.38;5044352;28;19925;-77
2023/09/04 08:03:56;;;;;;;;;;;;;;;22.10;100.00;99043.81;5045559;28;19967;-77
2023/09/04 08:06:23;;;;;;;;;;;;;;;22.14;100.00;99044.81;5043865;28;19925;-77
2023/09/04 08:08:50;;;;;;;;;;;;;;;22.24;100.00;99046.47;5042085;28;20027;-77
2023/09/04 08:11:17;;;;;;;;;;;;;;;22.10;100.00;99049.25;5060162;28;19935;-77
2023/09/04 08:13:45;;;;;;;;;;;;;;;21.91;100.00;99054.09;5064402;28;19921;-77
2023/09/04 08:16:11;;;;;;;;;;;;;;;21.24;100.00;99053.16;5070778;28;20285;-77
2023/09/04 08:18:37;;;;;;;;;;;;;;;21.01;100.00;99057.69;5060292;28;19968;-77
2023/09/04 08:21:04;;;;;;;;;;;;;;;21.29;100.00;99056.56;5060012;28;19925;-77
2023/09/04 08:23:30;;;;;;;;;;;;;;;21.57;100.00;99045.66;5063133;28;19996;-77
2023/09/04 08:25:59;;;;;;;;;;;;;;;21.63;100.00;99044.41;5063489;28;20417;-77
2023/09/04 08:28:26;;;;;;;;;;;;;;;21.46;100.00;99037.72;5043226;28;19924;-77
2023/09/04 08:30:53;;;;;;;;;;;;;;;21.40;100.00;99047.09;5042225;28;19947;-77
2023/09/04 08:33:20;;;;;;;;;;;;;;;21.26;100.00;99050.97;5043700;28;19921;-77
2023/09/04 08:35:46;;;;;;;;;;;;;;;21.31;100.00;99046.22;5045210;28;19948;-78
2023/09/04 08:38:12;;;;;;;;;;;;;;;21.54;100.00;99060.63;5062455;28;19956;-77
2023/09/04 08:40:41;;;;;;;;;;;;;;;21.54;100.00;99038.88;5059367;28;19933;-77
2023/09/04 08:43:08;;;;;;;;;;;;;;;21.60;100.00;99045.03;5041554;28;19925;-77
2023/09/04 08:45:34;;;;;;;;;;;;;;;21.68;100.00;99047.00;5059197;28;19925;-77
2023/09/04 08:48:02;;;;;;;;;;;;;;;21.72;100.00;99045.28;5058385;28;19951;-76
2023/09/04 08:50:29;;;;;;;;;;;;;;;21.71;100.00;99046.38;5060185;28;19967;-76
2023/09/04 08:52:55;;;;;;;;;;;;;;;21.84;100.00;99046.34;5058513;28;19960;-77
2023/09/04 08:55:22;;;;;;;;;;;;;;;21.84;100.00;99054.50;5061004;28;19929;-76
2023/09/04 08:57:49;;;;;;;;;;;;;;;21.65;100.00;99047.63;5044660;28;19924;-76
2023/09/04 09:00:16;;;;;;;;;;;;;;;21.68;100.00;99052.44;5044502;28;19921;-76
2023/09/04 09:05:24;;;;;;;;;;;;;;;21.49;100.00;99058.03;5060783;28;19925;-77
2023/09/04 09:07:51;;;;;;;;;;;;;;;21.42;100.00;99054.94;5062218;28;19925;-77
2023/09/04 09:10:20;;;;;;;;;;;;;;;21.38;100.00;99056.66;5043430;28;19925;-77
2023/09/04 09:12:46;;;;;;;;;;;;;;;21.57;100.00;99045.66;5058824;28;19925;-77
2023/09/04 09:15:14;;;;;;;;;;;;;;;21.64;100.00;99040.56;5058389;28;19925;-77
2023/09/04 09:17:50;;;;;;;;;;;;;;;21.92;100.00;99044.81;5054756;28;19964;-77
2023/09/04 09:20:29;;;;;;;;;;;;;;;22.08;99.97;99031.63;5060897;28;19935;-76
2023/09/04 09:22:56;;;;;;;;;;;;;;;22.51;98.45;99036.19;5039644;28;19925;-76
2023/09/04 09:25:23;;;;;;;;;;;;;;;22.40;98.32;99032.16;5060074;28;19925;-76
2023/09/04 09:27:50;;;;;;;;;;;;;;;22.63;97.86;99026.63;5061575;28;20418;-76
2023/09/04 09:30:16;;;;;;;;;;;;;;;22.81;97.38;99022.91;5061000;28;19960;-76
2023/09/04 09:32:43;;;;;;;;;;;;;;;23.11;95.85;99022.00;5040393;28;19936;-77
2023/09/04 09:35:10;;;;;;;;;;;;;;;23.55;93.10;99018.25;5058189;28;20059;-77
2023/09/04 09:37:38;;;;;;;;;;;;;;;23.57;92.44;99015.97;5058282;28;19932;-77
2023/09/04 09:40:08;;;;;;;;;;;;;;;23.37;93.52;99019.28;5058338;28;19925;-77
2023/09/04 09:42:35;;;;;;;;;;;;;;;22.84;93.52;99017.59;5061644;28;19940;-77
2023/09/04 09:45:05;;;;;;;;;;;;;;;23.17;91.72;99018.00;5060665;28;19951;-77
2023/09/04 09:47:32;;;;;;;;;;;;;;;23.39;91.79;99012.47;5053066;28;19929;-77
2023/09/04 09:49:59;;;;;;;;;;;;;;;24.68;84.21;99004.81;5061754;28;19967;-77
2023/09/04 09:52:25;;;;;;;;;;;;;;;24.52;82.70;99011.16;5041543;28;19921;-77
2023/09/04 09:54:53;;;;;;;;;;;;;;;23.89;81.68;99015.47;5057910;28;19929;-77
2023/09/04 09:57:20;;;;;;;;;;;;;;;23.26;87.52;99012.56;5041415;28;19944;-77
2023/09/04 09:59:48;;;;;;;;;;;;;;;23.45;90.53;99003.00;5043786;28;19920;-76
2023/09/04 10:02:18;;;;;;;;;;;;;;;25.01;81.43;99009.66;5043166;28;19956;-77
2023/09/04 10:04:45;;;;;;;;;;;;;;;24.04;80.58;99014.97;5040024;28;19925;-77
2023/09/04 10:07:15;;;;;;;;;;;;;;;23.24;87.20;99012.09;5040562;28;19935;-77
2023/09/04 10:09:43;;;;;;;;;;;;;;;23.38;87.13;99010.81;5061131;28;19924;-77
2023/09/04 10:12:13;;;;;;;;;;;;;;;24.11;85.45;99006.31;5043265;28;19920;-77
2023/09/04 10:14:40;;;;;;;;;;;;;;;25.06;81.30;99001.28;5047717;28;19925;-77
2023/09/04 10:17:11;;;;;;;;;;;;;;;25.02;78.86;98994.84;5032150;28;19932;-77
2023/09/04 10:19:40;;;;;;;;;;;;;;;25.59;77.31;98984.94;5059309;28;19935;-77
2023/09/04 10:22:08;;;;;;;;;;;;;;;24.76;76.98;98983.25;5041425;28;19925;-77
2023/09/04 10:24:42;;;;;;;;;;;;;;;24.78;80.22;98986.44;5062961;28;19924;-77
2023/09/04 10:27:09;;;;;;;;;;;;;;;24.72;81.91;98974.91;5061924;28;19925;-77
2023/09/04 10:29:42;;;;;;;;;;;;;;;25.04;80.72;98987.91;5049013;28;19936;-77
2023/09/04 10:32:11;;;;;;;;;;;;;;;24.38;83.90;98989.53;5040499;28;20048;-77
2023/09/04 10:34:40;;;;;;;;;;;;;;;24.12;89.63;98975.16;5051662;28;19925;-77
2023/09/04 10:37:09;;;;;;;;;;;;;;;25.21;83.73;98968.69;5062124;28;19948;-77
2023/09/04 10:39:38;;;;;;;;;;;;;;;24.41;81.30;98968.97;5044114;28;19931;-77
2023/09/04 10:42:05;;;;;;;;;;;;;;;24.13;85.78;98958.47;5061504;28;19925;-76
2023/09/04 10:44:46;;;;;;;;;;;;;;;25.05;83.95;98962.19;5062896;28;19933;-76
2023/09/04 10:47:13;;;;;;;;;;;;;;;24.94;79.96;98960.19;5054591;28;19996;-76
2023/09/04 10:49:39;;;;;;;;;;;;;;;24.46;80.35;98961.38;5065154;28;19948;-76
2023/09/04 10:52:06;;;;;;;;;;;;;;;24.48;78.88;98959.13;5047387;28;19920;-76
2023/09/04 10:54:33;;;;;;;;;;;;;;;24.35;76.93;98959.34;5061668;28;19992;-76
2023/09/04 10:57:00;;;;;;;;;;;;;;;24.25;77.74;98955.06;5061296;28;19925;-76
2023/09/04 10:59:41;;;;;;;;;;;;;;;24.76;76.96;98947.75;5045916;28;19926;-76
2023/09/04 11:02:23;;;;;;;;;;;;;;;25.33;73.07;98942.53;5046720;28;20406;-77
2023/09/04 11:04:52;;;;;;;;;;;;;;;24.99;69.47;98949.88;5050085;28;19925;-78
2023/09/04 11:07:25;;;;;;;;;;;;;;;24.46;71.48;98955.13;5062376;28;19953;-77
2023/09/04 11:09:53;;;;;;;;;;;;;;;24.25;74.89;98949.59;5064572;28;20353;-76
2023/09/04 11:12:20;;;;;;;;;;;;;;;24.41;73.55;98956.13;5045290;28;19931;-77
2023/09/04 11:14:46;;;;;;;;;;;;;;;24.66;74.14;98938.78;5060957;28;19925;-77
2023/09/04 11:17:15;;;;;;;;;;;;;;;24.84;73.88;98941.44;5053084;28;19933;-77
2023/09/04 11:19:41;;;;;;;;;;;;;;;25.22;71.52;98944.88;5064268;28;19958;-77
2023/09/04 11:22:16;;;;;;;;;;;;;;;25.60;70.00;98944.72;5064069;28;20259;-77
2023/09/04 11:24:42;;;;;;;;;;;;;;;25.31;68.82;98937.41;5050224;28;19936;-79
2023/09/04 11:27:08;;;;;;;;;;;;;;;24.68;67.60;98943.91;5060683;28;19925;-78
2023/09/04 11:29:35;;;;;;;;;;;;;;;24.06;69.67;98939.03;5063690;28;19925;-77
2023/09/04 11:32:02;;;;;;;;;;;;;;;23.93;73.08;98945.47;5063991;28;19925;-77
2023/09/04 11:34:28;;;;;;;;;;;;;;;24.23;74.25;98940.13;5043544;28;19925;-77
2023/09/04 11:36:55;;;;;;;;;;;;;;;24.78;73.84;98929.88;5060816;28;19925;-77
2023/09/04 11:39:22;;;;;;;;;;;;;;;25.23;72.75;98925.38;5044274;28;19925;-77
2023/09/04 11:41:49;;;;;;;;;;;;;;;25.71;72.04;98924.81;5046502;28;19959;-77
2023/09/04 11:44:16;;;;;;;;;;;;;;;25.90;71.42;98921.56;5063051;28;19936;-77
2023/09/04 11:46:43;;;;;;;;;;;;;;;25.73;69.00;98917.06;5051102;28;19961;-77
2023/09/04 11:49:09;;;;;;;;;;;;;;;25.68;70.84;98916.50;5060156;28;19925;-78
2023/09/04 11:51:37;;;;;;;;;;;;;;;25.45;69.86;98921.50;5055601;28;19924;-77
2023/09/04 11:54:04;;;;;;;;;;;;;;;25.09;64.23;98924.06;5045660;28;20459;-77
2023/09/04 11:56:32;;;;;;;;;;;;;;;25.41;63.12;98917.06;5060983;28;19925;-78
2023/09/04 11:58:58;;;;;;;;;;;;;;;24.98;64.06;98923.66;5075804;28;19960;-77
2023/09/04 12:01:24;;;;;;;;;;;;;;;25.30;63.93;98919.38;5062106;28;19992;-77
2023/09/04 12:03:52;;;;;;;;;;;;;;;24.91;63.74;98923.41;5046002;28;19925;-78
2023/09/04 12:06:19;;;;;;;;;;;;;;;24.63;68.51;98920.31;5044284;28;19947;-77
2023/09/04 12:08:45;;;;;;;;;;;;;;;24.77;70.76;98922.81;5041983;28;19925;-77
2023/09/04 12:11:12;;;;;;;;;;;;;;;24.87;70.71;98916.19;5059968;28;19925;-77
2023/09/04 12:13:39;;;;;;;;;;;;;;;24.95;70.50;98929.78;5063076;28;19925;-77
2023/09/04 12:16:06;;;;;;;;;;;;;;;24.71;70.80;98919.47;5055673;28;19960;-78
2023/09/04 12:18:34;;;;;;;;;;;;;;;24.68;70.96;98914.69;5059499;28;19929;-77
2023/09/04 12:21:01;;;;;;;;;;;;;;;25.03;71.38;98917.19;5041353;28;20015;-75
2023/09/04 12:23:38;;;;;;;;;;;;;;;25.06;68.91;98905.59;5061837;28;19952;-76
2023/09/04 12:26:04;;;;;;;;;;;;;;;24.92;69.89;98905.84;5062883;28;19925;-76
2023/09/04 12:28:31;;;;;;;;;;;;;;;25.09;72.04;98905.75;5060529;28;19929;-77
2023/09/04 12:30:59;;;;;;;;;;;;;;;25.08;69.40;98900.59;5059697;28;19925;-77
2023/09/04 12:33:29;;;;;;;;;;;;;;;24.91;65.47;98898.81;5061524;28;19925;-75
2023/09/04 12:35:56;;;;;;;;;;;;;;;24.73;63.16;98893.78;5062800;28;19971;-76
2023/09/04 12:38:23;;;;;;;;;;;;;;;24.79;63.16;98889.72;5061158;28;19929;-77
2023/09/04 12:40:49;;;;;;;;;;;;;;;24.80;64.23;98881.16;5059326;28;19925;-77
2023/09/04 12:43:16;;;;;;;;;;;;;;;24.92;64.66;98869.53;5041808;28;19925;-77
2023/09/04 12:45:42;;;;;;;;;;;;;;;24.94;64.30;98867.28;5040213;28;19960;-77
2023/09/04 12:48:15;;;;;;;;;;;;;;;24.98;66.10;98863.53;5033262;28;19924;-77
2023/09/04 12:50:41;;;;;;;;;;;;;;;25.00;65.90;98864.00;5041297;28;19925;-77
2023/09/04 12:53:08;;;;;;;;;;;;;;;24.92;65.19;98867.59;5059377;28;20367;-77